Airfield :
LOGIN :

Register | Disclaimer

   EN    FR    IT 

 










Legend :    VFR   Marginal VFR   IFR   Intensive IFR   Very Intensive IFR
Visi :
Ceiling :
>= 8 km
>= 3000ft
5 to 8 km
1000 to 3000 ft
1500m to 5 km
500 to 1000 ft
800 to 1500m
200 to 500 ft
< 800m
< 200 ft
Symbols :   Thunderstorms  Fog  Heavy snow  Heavy precipitations  Wind > 20 kt
SIGMETs :     Misc.  Thunderstorms  Icing  Turbulence  Mountain Waves  Volcanic Ashes






- Airport Elevation : 10 ft
- IATA code : AAL


EKYT - Aalborg

CURRENT METAR :
  • 150220Z AUTO 07005KT 2400 BR FEW017/// 03/03 Q1017

EXPIRED METARs :
  • 150150Z AUTO 05003KT 2800 BR FEW220/// 02/02 Q1017
  • 150120Z AUTO 07005KT 2800 BR FEW018/// 02/02 Q1016
  • 150050Z AUTO 05004KT 2600 BR FEW017/// 02/02 Q1016
  • 150020Z AUTO 06003KT 2400 BR FEW240/// 02/02 Q1016
  • 142350Z AUTO 05004KT 3000 BR FEW240/// 02/02 Q1016

TAF TAF EKYT
Valid from the 15 at 00:00 until the 16 at 00:00 UTC


142318Z 1500/1524 10006KT 6000 SCT150
TEMPO 1500/1507 1800 BR
BECMG 1507/1509 09015G25KT 9999
TEMPO 1522/1524 6000 -RA



MET'MAP, your aeronautical weather chart ! - Copyright ORBIFLY December 2007 - Disclaimer

ORBIFLY MET'MAP TEAM :

Programming & Development : Alexandra Zaïnal
Concept & Development : Baudouin d'Aumeries
Co-Development & Prog : Marc-Olivier Méhu
Technical & hardware support : Manuel Goepfert

Contact : metmap@orbifly.com




SOURCES & CREDITS :

   NOAA